sensor_id;sensor_type;location;lat;lon;timestamp;pressure;altitude;pressure_sealevel;temperature;humidity
82353;BME280;71954;47.430;18.920;2023-08-12T00:01:02;100524.97;;;17.26;62.21
82353;BME280;71954;47.430;18.920;2023-08-12T00:03:29;100529.50;;;17.25;62.09
82353;BME280;71954;47.430;18.920;2023-08-12T00:05:56;100525.28;;;17.23;63.08
82353;BME280;71954;47.430;18.920;2023-08-12T00:08:23;100527.41;;;17.19;63.11
82353;BME280;71954;47.430;18.920;2023-08-12T00:10:49;100527.75;;;17.16;63.87
82353;BME280;71954;47.430;18.920;2023-08-12T00:13:16;100526.88;;;17.16;63.51
82353;BME280;71954;47.430;18.920;2023-08-12T00:15:44;100528.72;;;17.15;63.67
82353;BME280;71954;47.430;18.920;2023-08-12T00:18:11;100526.03;;;17.15;63.60
82353;BME280;71954;47.430;18.920;2023-08-12T00:20:38;100515.47;;;17.14;63.82
82353;BME280;71954;47.430;18.920;2023-08-12T00:23:04;100518.28;;;17.12;62.92
82353;BME280;71954;47.430;18.920;2023-08-12T00:25:32;100514.94;;;17.10;62.61
82353;BME280;71954;47.430;18.920;2023-08-12T00:27:58;100512.25;;;17.10;62.89
82353;BME280;71954;47.430;18.920;2023-08-12T00:30:25;100511.53;;;17.08;62.85
82353;BME280;71954;47.430;18.920;2023-08-12T00:32:52;100519.59;;;17.08;64.23
82353;BME280;71954;47.430;18.920;2023-08-12T00:35:18;100513.84;;;17.03;63.50
82353;BME280;71954;47.430;18.920;2023-08-12T00:37:45;100509.63;;;17.00;63.46
82353;BME280;71954;47.430;18.920;2023-08-12T00:40:13;100514.13;;;17.00;63.20
82353;BME280;71954;47.430;18.920;2023-08-12T00:42:39;100507.09;;;16.99;63.56
82353;BME280;71954;47.430;18.920;2023-08-12T00:45:09;100510.78;;;16.98;63.12
82353;BME280;71954;47.430;18.920;2023-08-12T00:47:36;100506.41;;;16.97;63.30
82353;BME280;71954;47.430;18.920;2023-08-12T00:50:03;100505.69;;;16.95;63.60
82353;BME280;71954;47.430;18.920;2023-08-12T00:52:29;100504.00;;;16.94;63.57
82353;BME280;71954;47.430;18.920;2023-08-12T00:54:56;100506.88;;;16.92;63.60
82353;BME280;71954;47.430;18.920;2023-08-12T00:57:23;100495.44;;;16.90;63.23
82353;BME280;71954;47.430;18.920;2023-08-12T00:59:50;100504.31;;;16.91;63.50
82353;BME280;71954;47.430;18.920;2023-08-12T01:02:16;100493.59;;;16.91;62.96
82353;BME280;71954;47.430;18.920;2023-08-12T01:04:43;100503.47;;;16.90;62.89
82353;BME280;71954;47.430;18.920;2023-08-12T01:07:09;100506.03;;;16.92;63.09
82353;BME280;71954;47.430;18.920;2023-08-12T01:09:38;100504.31;;;16.91;62.46
82353;BME280;71954;47.430;18.920;2023-08-12T01:12:06;100500.09;;;16.88;62.79
82353;BME280;71954;47.430;18.920;2023-08-12T01:14:45;100500.28;;;16.87;63.07
82353;BME280;71954;47.430;18.920;2023-08-12T01:17:14;100501.25;;;16.86;62.81
82353;BME280;71954;47.430;18.920;2023-08-12T01:19:42;100503.94;;;16.86;62.87
82353;BME280;71954;47.430;18.920;2023-08-12T01:22:11;100498.56;;;16.86;63.45
82353;BME280;71954;47.430;18.920;2023-08-12T01:24:40;100502.09;;;16.86;62.86
82353;BME280;71954;47.430;18.920;2023-08-12T01:27:09;100507.28;;;16.88;63.75
82353;BME280;71954;47.430;18.920;2023-08-12T01:29:39;100504.63;;;16.88;62.89
82353;BME280;71954;47.430;18.920;2023-08-12T01:37:50;100507.59;;;16.85;63.14
82353;BME280;71954;47.430;18.920;2023-08-12T01:40:19;100509.59;;;16.83;63.23
82353;BME280;71954;47.430;18.920;2023-08-12T01:42:46;100510.59;;;16.82;63.38
82353;BME280;71954;47.430;18.920;2023-08-12T01:45:13;100514.56;;;16.78;64.03
82353;BME280;71954;47.430;18.920;2023-08-12T01:47:43;100516.56;;;16.76;63.78
82353;BME280;71954;47.430;18.920;2023-08-12T01:50:09;100510.66;;;16.72;63.44
82353;BME280;71954;47.430;18.920;2023-08-12T01:52:36;100512.47;;;16.72;63.45
82353;BME280;71954;47.430;18.920;2023-08-12T01:55:03;100512.47;;;16.72;63.48
82353;BME280;71954;47.430;18.920;2023-08-12T01:57:30;100514.31;;;16.71;63.24
82353;BME280;71954;47.430;18.920;2023-08-12T01:59:57;100511.81;;;16.70;63.57
82353;BME280;71954;47.430;18.920;2023-08-12T02:02:23;100518.44;;;16.65;63.60
82353;BME280;71954;47.430;18.920;2023-08-12T02:04:50;100516.06;;;16.62;63.77
82353;BME280;71954;47.430;18.920;2023-08-12T02:07:16;100517.19;;;16.60;63.79
82353;BME280;71954;47.430;18.920;2023-08-12T02:09:43;100516.91;;;16.53;64.62
82353;BME280;71954;47.430;18.920;2023-08-12T02:12:10;100520.03;;;16.49;64.61
82353;BME280;71954;47.430;18.920;2023-08-12T02:14:36;100514.97;;;16.46;64.83
82353;BME280;71954;47.430;18.920;2023-08-12T02:17:03;100516.25;;;16.42;64.80
82353;BME280;71954;47.430;18.920;2023-08-12T02:19:33;100511.22;;;16.39;64.47
82353;BME280;71954;47.430;18.920;2023-08-12T02:22:01;100513.31;;;16.35;64.46
82353;BME280;71954;47.430;18.920;2023-08-12T02:24:29;100516.84;;;16.36;64.92
82353;BME280;71954;47.430;18.920;2023-08-12T02:26:55;100516.31;;;16.32;64.92
82353;BME280;71954;47.430;18.920;2023-08-12T02:29:22;100517.31;;;16.31;65.28
82353;BME280;71954;47.430;18.920;2023-08-12T02:31:49;100513.91;;;16.29;64.72
82353;BME280;71954;47.430;18.920;2023-08-12T02:34:15;100511.38;;;16.27;65.09
82353;BME280;71954;47.430;18.920;2023-08-12T02:36:42;100506.00;;;16.27;65.43
82353;BME280;71954;47.430;18.920;2023-08-12T02:39:09;100509.53;;;16.28;65.14
82353;BME280;71954;47.430;18.920;2023-08-12T02:41:35;100507.03;;;16.26;64.99
82353;BME280;71954;47.430;18.920;2023-08-12T02:44:02;100519.00;;;16.22;65.39
82353;BME280;71954;47.430;18.920;2023-08-12T02:46:28;100504.94;;;16.20;65.68
82353;BME280;71954;47.430;18.920;2023-08-12T02:48:55;100509.72;;;16.17;65.28
82353;BME280;71954;47.430;18.920;2023-08-12T02:51:22;100500.84;;;16.16;65.36
82353;BME280;71954;47.430;18.920;2023-08-12T02:53:48;100498.16;;;16.16;65.57
82353;BME280;71954;47.430;18.920;2023-08-12T02:56:15;100500.16;;;16.14;65.26
82353;BME280;71954;47.430;18.920;2023-08-12T02:58:41;100507.50;;;16.12;65.48
82353;BME280;71954;47.430;18.920;2023-08-12T03:01:08;100512.00;;;16.12;64.99
82353;BME280;71954;47.430;18.920;2023-08-12T03:03:35;100508.63;;;16.10;65.63
82353;BME280;71954;47.430;18.920;2023-08-12T03:06:02;100506.94;;;16.09;65.42
82353;BME280;71954;47.430;18.920;2023-08-12T03:08:28;100509.91;;;16.06;64.89
82353;BME280;71954;47.430;18.920;2023-08-12T03:10:59;100504.00;;;16.02;65.35
82353;BME280;71954;47.430;18.920;2023-08-12T03:13:26;100503.16;;;16.02;65.66
82353;BME280;71954;47.430;18.920;2023-08-12T03:15:53;100505.13;;;16.00;66.04
82353;BME280;71954;47.430;18.920;2023-08-12T03:18:20;100505.13;;;16.00;66.17
82353;BME280;71954;47.430;18.920;2023-08-12T03:20:47;100502.44;;;16.00;65.98
82353;BME280;71954;47.430;18.920;2023-08-12T03:23:14;100504.88;;;15.93;66.03
82353;BME280;71954;47.430;18.920;2023-08-12T03:25:41;100508.69;;;15.91;65.66
82353;BME280;71954;47.430;18.920;2023-08-12T03:28:07;100508.69;;;15.91;65.96
82353;BME280;71954;47.430;18.920;2023-08-12T03:30:34;100514.31;;;15.87;66.11
82353;BME280;71954;47.430;18.920;2023-08-12T03:33:00;100511.94;;;15.84;66.71
82353;BME280;71954;47.430;18.920;2023-08-12T03:35:27;100509.28;;;15.84;66.80
82353;BME280;71954;47.430;18.920;2023-08-12T03:37:54;100516.59;;;15.82;67.11
82353;BME280;71954;47.430;18.920;2023-08-12T03:40:20;100517.88;;;15.78;67.22
82353;BME280;71954;47.430;18.920;2023-08-12T03:42:47;100523.34;;;15.77;67.02
82353;BME280;71954;47.430;18.920;2023-08-12T03:45:14;100529.56;;;15.77;67.37
82353;BME280;71954;47.430;18.920;2023-08-12T03:47:40;100527.03;;;15.76;67.26
82353;BME280;71954;47.430;18.920;2023-08-12T03:50:07;100534.06;;;15.77;67.09
82353;BME280;71954;47.430;18.920;2023-08-12T03:52:34;100526.88;;;15.77;67.77
82353;BME280;71954;47.430;18.920;2023-08-12T03:55:00;100526.16;;;15.75;68.12
82353;BME280;71954;47.430;18.920;2023-08-12T03:57:27;100520.81;;;15.75;67.86
82353;BME280;71954;47.430;18.920;2023-08-12T03:59:54;100525.91;;;15.78;67.36
82353;BME280;71954;47.430;18.920;2023-08-12T04:02:20;100523.91;;;15.80;68.02
82353;BME280;71954;47.430;18.920;2023-08-12T04:04:47;100531.81;;;15.82;68.48
82353;BME280;71954;47.430;18.920;2023-08-12T04:07:13;100537.69;;;15.85;67.70
82353;BME280;71954;47.430;18.920;2023-08-12T04:09:40;100531.38;;;15.86;68.34
82353;BME280;71954;47.430;18.920;2023-08-12T04:12:07;100527.56;;;15.89;68.49
82353;BME280;71954;47.430;18.920;2023-08-12T04:14:34;100538.81;;;15.93;68.15
82353;BME280;71954;47.430;18.920;2023-08-12T04:17:00;100534.31;;;15.93;68.31
82353;BME280;71954;47.430;18.920;2023-08-12T04:19:27;100536.72;;;15.96;68.61
82353;BME280;71954;47.430;18.920;2023-08-12T04:21:54;100528.53;;;15.98;68.25
82353;BME280;71954;47.430;18.920;2023-08-12T04:24:21;100542.34;;;16.03;68.62
82353;BME280;71954;47.430;18.920;2023-08-12T04:26:47;100542.03;;;16.06;68.36
82353;BME280;71954;47.430;18.920;2023-08-12T04:29:14;100535.41;;;16.10;68.23
82353;BME280;71954;47.430;18.920;2023-08-12T04:31:41;100544.72;;;16.15;68.44
82353;BME280;71954;47.430;18.920;2023-08-12T04:34:07;100539.19;;;16.17;69.34
82353;BME280;71954;47.430;18.920;2023-08-12T04:36:34;100539.91;;;16.19;69.04
82353;BME280;71954;47.430;18.920;2023-08-12T04:39:01;100540.16;;;16.25;69.25
82353;BME280;71954;47.430;18.920;2023-08-12T04:41:27;100546.78;;;16.31;69.64
82353;BME280;71954;47.430;18.920;2023-08-12T04:43:54;100544.63;;;16.35;68.59
82353;BME280;71954;47.430;18.920;2023-08-12T04:46:20;100544.88;;;16.41;69.48
82353;BME280;71954;47.430;18.920;2023-08-12T04:48:47;100547.13;;;16.46;68.58
82353;BME280;71954;47.430;18.920;2023-08-12T04:51:14;100545.72;;;16.51;68.27
82353;BME280;71954;47.430;18.920;2023-08-12T04:53:40;100549.63;;;16.57;68.10
82353;BME280;71954;47.430;18.920;2023-08-12T04:56:07;100550.91;;;16.62;68.93
82353;BME280;71954;47.430;18.920;2023-08-12T04:58:34;100554.97;;;16.66;68.43
82353;BME280;71954;47.430;18.920;2023-08-12T05:01:01;100551.00;;;16.71;69.12
82353;BME280;71954;47.430;18.920;2023-08-12T05:03:27;100545.63;;;16.71;68.90
82353;BME280;71954;47.430;18.920;2023-08-12T05:05:54;100553.78;;;16.79;68.85
82353;BME280;71954;47.430;18.920;2023-08-12T05:08:21;100550.69;;;17.01;68.36
82353;BME280;71954;47.430;18.920;2023-08-12T05:10:48;100538.94;;;17.29;69.23
82353;BME280;71954;47.430;18.920;2023-08-12T05:13:17;100541.66;;;17.65;67.14
82353;BME280;71954;47.430;18.920;2023-08-12T05:15:47;100541.72;;;17.99;67.28
82353;BME280;71954;47.430;18.920;2023-08-12T05:18:14;100544.38;;;18.42;65.61
82353;BME280;71954;47.430;18.920;2023-08-12T05:20:41;100543.06;;;18.88;64.08
82353;BME280;71954;47.430;18.920;2023-08-12T05:23:12;100542.16;;;19.30;62.67
82353;BME280;71954;47.430;18.920;2023-08-12T05:25:39;100535.34;;;19.76;62.28
82353;BME280;71954;47.430;18.920;2023-08-12T05:28:05;100537.00;;;20.17;59.12
82353;BME280;71954;47.430;18.920;2023-08-12T05:30:32;100538.44;;;20.60;57.16
82353;BME280;71954;47.430;18.920;2023-08-12T05:32:59;100540.53;;;21.12;56.81
82353;BME280;71954;47.430;18.920;2023-08-12T05:35:26;100534.09;;;21.67;56.84
82353;BME280;71954;47.430;18.920;2023-08-12T05:37:53;100538.81;;;22.10;54.55
82353;BME280;71954;47.430;18.920;2023-08-12T05:40:19;100531.94;;;22.22;54.42
82353;BME280;71954;47.430;18.920;2023-08-12T05:42:46;100528.09;;;22.61;54.21
82353;BME280;71954;47.430;18.920;2023-08-12T05:45:12;100530.94;;;22.82;52.02
82353;BME280;71954;47.430;18.920;2023-08-12T05:47:39;100529.72;;;23.21;52.81
82353;BME280;71954;47.430;18.920;2023-08-12T05:50:06;100531.19;;;23.80;50.47
82353;BME280;71954;47.430;18.920;2023-08-12T05:52:32;100527.28;;;24.45;47.87
82353;BME280;71954;47.430;18.920;2023-08-12T05:54:59;100523.88;;;25.12;47.77
82353;BME280;71954;47.430;18.920;2023-08-12T05:57:26;100524.00;;;25.78;45.95
82353;BME280;71954;47.430;18.920;2023-08-12T05:59:55;100524.34;;;26.54;41.58
82353;BME280;71954;47.430;18.920;2023-08-12T06:02:21;100519.66;;;26.94;43.70
82353;BME280;71954;47.430;18.920;2023-08-12T06:04:48;100523.38;;;27.37;41.29
82353;BME280;71954;47.430;18.920;2023-08-12T06:07:15;100520.50;;;27.88;39.40
82353;BME280;71954;47.430;18.920;2023-08-12T06:09:41;100524.22;;;28.44;37.53
82353;BME280;71954;47.430;18.920;2023-08-12T06:12:08;100508.19;;;28.65;35.48
82353;BME280;71954;47.430;18.920;2023-08-12T06:14:37;100508.94;;;29.09;35.02
82353;BME280;71954;47.430;18.920;2023-08-12T06:17:05;100513.00;;;29.48;34.75
82353;BME280;71954;47.430;18.920;2023-08-12T06:19:32;100511.72;;;29.21;34.74
82353;BME280;71954;47.430;18.920;2023-08-12T06:21:58;100514.59;;;29.56;34.49
82353;BME280;71954;47.430;18.920;2023-08-12T06:24:25;100520.31;;;29.96;33.48
82353;BME280;71954;47.430;18.920;2023-08-12T06:26:52;100511.34;;;30.35;33.45
82353;BME280;71954;47.430;18.920;2023-08-12T06:29:21;100511.31;;;30.70;32.99
82353;BME280;71954;47.430;18.920;2023-08-12T06:31:48;100511.72;;;31.02;32.17
82353;BME280;71954;47.430;18.920;2023-08-12T06:34:15;100505.16;;;31.31;31.15
82353;BME280;71954;47.430;18.920;2023-08-12T06:36:41;100510.94;;;31.46;31.34
82353;BME280;71954;47.430;18.920;2023-08-12T06:39:08;100517.34;;;30.95;32.37
82353;BME280;71954;47.430;18.920;2023-08-12T06:41:43;100512.53;;;31.02;32.16
82353;BME280;71954;47.430;18.920;2023-08-12T06:44:13;100509.75;;;30.86;32.33
82353;BME280;71954;47.430;18.920;2023-08-12T06:46:44;100506.97;;;30.97;31.91
82353;BME280;71954;47.430;18.920;2023-08-12T06:49:11;100505.09;;;30.86;31.93
82353;BME280;71954;47.430;18.920;2023-08-12T06:51:38;100499.44;;;30.53;32.53
82353;BME280;71954;47.430;18.920;2023-08-12T06:54:04;100504.88;;;30.76;31.99
82353;BME280;71954;47.430;18.920;2023-08-12T06:56:31;100504.69;;;30.94;31.97
82353;BME280;71954;47.430;18.920;2023-08-12T06:58:58;100505.63;;;31.00;31.68
82353;BME280;71954;47.430;18.920;2023-08-12T07:01:24;100502.53;;;29.98;32.52
82353;BME280;71954;47.430;18.920;2023-08-12T07:03:51;100511.09;;;29.37;34.04
82353;BME280;71954;47.430;18.920;2023-08-12T07:06:18;100505.91;;;29.47;34.61
82353;BME280;71954;47.430;18.920;2023-08-12T07:08:44;100506.50;;;29.61;33.80
82353;BME280;71954;47.430;18.920;2023-08-12T07:11:11;100514.13;;;29.59;33.39
82353;BME280;71954;47.430;18.920;2023-08-12T07:13:37;100509.13;;;29.56;34.10
82353;BME280;71954;47.430;18.920;2023-08-12T07:16:04;100506.03;;;29.52;34.17
82353;BME280;71954;47.430;18.920;2023-08-12T07:18:31;100513.28;;;29.46;34.35
82353;BME280;71954;47.430;18.920;2023-08-12T07:20:57;100513.53;;;29.27;34.26
82353;BME280;71954;47.430;18.920;2023-08-12T07:23:27;100510.63;;;29.10;34.64
82353;BME280;71954;47.430;18.920;2023-08-12T07:25:54;100510.03;;;28.53;35.26
82353;BME280;71954;47.430;18.920;2023-08-12T07:28:20;100516.44;;;28.22;36.42
82353;BME280;71954;47.430;18.920;2023-08-12T07:30:50;100510.81;;;27.92;37.54
82353;BME280;71954;47.430;18.920;2023-08-12T07:33:17;100520.88;;;27.67;37.93
82353;BME280;71954;47.430;18.920;2023-08-12T07:35:43;100518.50;;;27.46;37.47
82353;BME280;71954;47.430;18.920;2023-08-12T07:38:10;100522.34;;;27.32;38.91
82353;BME280;71954;47.430;18.920;2023-08-12T07:40:36;100522.38;;;27.25;38.76
82353;BME280;71954;47.430;18.920;2023-08-12T07:43:07;100508.72;;;27.00;39.32
82353;BME280;71954;47.430;18.920;2023-08-12T07:45:34;100517.13;;;26.86;38.92
82353;BME280;71954;47.430;18.920;2023-08-12T07:48:00;100520.69;;;26.86;39.79
82353;BME280;71954;47.430;18.920;2023-08-12T07:50:27;100519.47;;;26.82;39.31
82353;BME280;71954;47.430;18.920;2023-08-12T07:52:53;100515.72;;;26.70;40.69
82353;BME280;71954;47.430;18.920;2023-08-12T07:55:20;100517.19;;;26.66;41.22
82353;BME280;71954;47.430;18.920;2023-08-12T07:57:49;100514.06;;;26.62;41.13
82353;BME280;71954;47.430;18.920;2023-08-12T08:00:16;100514.72;;;26.58;40.66
82353;BME280;71954;47.430;18.920;2023-08-12T08:02:43;100509.31;;;26.45;41.24
82353;BME280;71954;47.430;18.920;2023-08-12T08:05:09;100513.06;;;26.44;41.01
82353;BME280;71954;47.430;18.920;2023-08-12T08:07:36;100509.31;;;26.45;40.70
82353;BME280;71954;47.430;18.920;2023-08-12T08:10:03;100503.44;;;26.41;41.31
82353;BME280;71954;47.430;18.920;2023-08-12T08:12:29;100499.28;;;26.39;41.94
82353;BME280;71954;47.430;18.920;2023-08-12T08:14:56;100503.44;;;26.34;44.66
82353;BME280;71954;47.430;18.920;2023-08-12T08:17:22;100507.44;;;26.39;40.30
82353;BME280;71954;47.430;18.920;2023-08-12T08:19:49;100502.59;;;26.41;40.29
82353;BME280;71954;47.430;18.920;2023-08-12T08:22:16;100502.81;;;26.46;41.28
82353;BME280;71954;47.430;18.920;2023-08-12T08:24:42;100499.66;;;26.49;41.65
82353;BME280;71954;47.430;18.920;2023-08-12T08:27:09;100503.69;;;26.40;41.27
82353;BME280;71954;47.430;18.920;2023-08-12T08:29:35;100502.19;;;26.44;40.92
82353;BME280;71954;47.430;18.920;2023-08-12T08:32:02;100498.63;;;26.37;42.03
82353;BME280;71954;47.430;18.920;2023-08-12T08:34:29;100496.78;;;26.30;41.64
82353;BME280;71954;47.430;18.920;2023-08-12T08:36:55;100504.94;;;26.04;42.22
82353;BME280;71954;47.430;18.920;2023-08-12T08:39:22;100506.81;;;26.10;42.00
82353;BME280;71954;47.430;18.920;2023-08-12T08:41:49;100500.13;;;26.19;42.40
82353;BME280;71954;47.430;18.920;2023-08-12T08:44:17;100502.66;;;26.08;42.05
82353;BME280;71954;47.430;18.920;2023-08-12T08:46:45;100498.44;;;26.12;41.35
82353;BME280;71954;47.430;18.920;2023-08-12T08:49:11;100505.56;;;26.13;41.67
82353;BME280;71954;47.430;18.920;2023-08-12T08:51:42;100501.81;;;26.07;41.93
82353;BME280;71954;47.430;18.920;2023-08-12T08:54:09;100498.03;;;26.08;41.59
82353;BME280;71954;47.430;18.920;2023-08-12T08:56:37;100496.75;;;26.11;43.76
82353;BME280;71954;47.430;18.920;2023-08-12T08:59:12;100507.25;;;26.14;42.65
82353;BME280;71954;47.430;18.920;2023-08-12T09:01:40;100500.97;;;26.13;42.60
82353;BME280;71954;47.430;18.920;2023-08-12T09:04:07;100493.25;;;25.97;42.47
82353;BME280;71954;47.430;18.920;2023-08-12T09:06:36;100497.63;;;25.98;47.78
82353;BME280;71954;47.430;18.920;2023-08-12T09:09:03;100503.69;;;26.00;42.75
82353;BME280;71954;47.430;18.920;2023-08-12T09:11:33;100488.00;;;25.89;43.79
82353;BME280;71954;47.430;18.920;2023-08-12T09:14:00;100490.09;;;25.93;42.64
82353;BME280;71954;47.430;18.920;2023-08-12T09:16:26;100489.25;;;25.93;43.84
82353;BME280;71954;47.430;18.920;2023-08-12T09:18:56;100488.41;;;25.99;46.94
82353;BME280;71954;47.430;18.920;2023-08-12T09:21:23;100482.56;;;25.96;46.67
82353;BME280;71954;47.430;18.920;2023-08-12T09:23:49;100488.00;;;25.76;41.50
82353;BME280;71954;47.430;18.920;2023-08-12T09:26:18;100481.72;;;25.88;42.17
82353;BME280;71954;47.430;18.920;2023-08-12T09:28:46;100480.88;;;25.94;44.15
82353;BME280;71954;47.430;18.920;2023-08-12T09:31:27;100481.53;;;26.03;42.28
82353;BME280;71954;47.430;18.920;2023-08-12T09:34:12;100474.78;;;26.12;39.84
82353;BME280;71954;47.430;18.920;2023-08-12T09:36:40;100476.66;;;26.18;39.99
82353;BME280;71954;47.430;18.920;2023-08-12T09:39:07;100472.91;;;26.26;40.61
82353;BME280;71954;47.430;18.920;2023-08-12T09:41:37;100472.91;;;26.32;40.13
82353;BME280;71954;47.430;18.920;2023-08-12T09:44:05;100472.47;;;26.36;39.88
82353;BME280;71954;47.430;18.920;2023-08-12T09:46:35;100467.84;;;26.43;41.37
82353;BME280;71954;47.430;18.920;2023-08-12T09:49:01;100467.44;;;26.46;44.87
82353;BME280;71954;47.430;18.920;2023-08-12T09:51:35;100463.88;;;26.45;41.71
82353;BME280;71954;47.430;18.920;2023-08-12T09:54:03;100468.28;;;26.40;40.46
82353;BME280;71954;47.430;18.920;2023-08-12T09:56:35;100457.13;;;26.48;39.63
82353;BME280;71954;47.430;18.920;2023-08-12T09:59:05;100454.00;;;26.51;39.62
82353;BME280;71954;47.430;18.920;2023-08-12T10:01:32;100458.59;;;26.50;40.28
82353;BME280;71954;47.430;18.920;2023-08-12T10:03:59;100462.84;;;26.40;42.54
82353;BME280;71954;47.430;18.920;2023-08-12T10:06:26;100457.78;;;26.43;38.96
82353;BME280;71954;47.430;18.920;2023-08-12T10:08:54;100454.00;;;26.51;39.84
82353;BME280;71954;47.430;18.920;2023-08-12T10:11:21;100453.53;;;26.60;41.50
82353;BME280;71954;47.430;18.920;2023-08-12T10:13:48;100442.19;;;26.70;40.30
82353;BME280;71954;47.430;18.920;2023-08-12T10:16:14;100442.97;;;26.77;37.67
82353;BME280;71954;47.430;18.920;2023-08-12T10:18:42;100441.25;;;26.45;38.29
82353;BME280;71954;47.430;18.920;2023-08-12T10:21:09;100446.41;;;26.59;38.33
82353;BME280;71954;47.430;18.920;2023-08-12T10:23:37;100436.75;;;26.70;38.04
82353;BME280;71954;47.430;18.920;2023-08-12T10:26:05;100448.19;;;26.79;38.52
82353;BME280;71954;47.430;18.920;2023-08-12T10:28:33;100438.31;;;26.91;39.19
82353;BME280;71954;47.430;18.920;2023-08-12T10:31:06;100442.09;;;26.90;38.79
82353;BME280;71954;47.430;18.920;2023-08-12T10:33:41;100442.28;;;26.95;42.14
82353;BME280;71954;47.430;18.920;2023-08-12T10:36:08;100442.91;;;26.97;46.23
82353;BME280;71954;47.430;18.920;2023-08-12T10:38:35;100438.28;;;26.97;46.49
82353;BME280;71954;47.430;18.920;2023-08-12T10:41:20;100435.19;;;26.87;44.27
82353;BME280;71954;47.430;18.920;2023-08-12T10:44:01;100436.25;;;26.80;46.10
82353;BME280;71954;47.430;18.920;2023-08-12T10:46:31;100434.00;;;26.70;47.95
82353;BME280;71954;47.430;18.920;2023-08-12T10:48:59;100434.53;;;26.41;46.16
82353;BME280;71954;47.430;18.920;2023-08-12T10:51:58;100426.19;;;26.36;46.10
82353;BME280;71954;47.430;18.920;2023-08-12T10:54:26;100427.84;;;26.43;43.34
82353;BME280;71954;47.430;18.920;2023-08-12T11:02:21;100424.59;;;26.66;38.75
82353;BME280;71954;47.430;18.920;2023-08-12T11:04:53;100420.19;;;26.65;45.61
82353;BME280;71954;47.430;18.920;2023-08-12T11:07:32;100415.75;;;26.70;44.67
82353;BME280;71954;47.430;18.920;2023-08-12T11:10:04;100409.94;;;26.60;39.74
82353;BME280;71954;47.430;18.920;2023-08-12T11:12:34;100401.75;;;26.67;45.11
82353;BME280;71954;47.430;18.920;2023-08-12T11:15:03;100406.56;;;26.65;46.09
82353;BME280;71954;47.430;18.920;2023-08-12T11:17:38;100399.03;;;26.67;46.94
82353;BME280;71954;47.430;18.920;2023-08-12T11:20:07;100396.94;;;26.69;45.86
82353;BME280;71954;47.430;18.920;2023-08-12T11:22:37;100395.25;;;26.68;39.77
82353;BME280;71954;47.430;18.920;2023-08-12T11:25:05;100392.34;;;26.63;40.92
82353;BME280;71954;47.430;18.920;2023-08-12T11:27:40;100394.22;;;26.69;41.95
82353;BME280;71954;47.430;18.920;2023-08-12T11:30:07;100391.03;;;26.72;39.29
82353;BME280;71954;47.430;18.920;2023-08-12T11:32:35;100389.09;;;26.79;38.72
82353;BME280;71954;47.430;18.920;2023-08-12T11:35:03;100385.53;;;26.79;39.03
82353;BME280;71954;47.430;18.920;2023-08-12T11:37:30;100388.09;;;26.73;47.18
82353;BME280;71954;47.430;18.920;2023-08-12T11:39:57;100378.28;;;26.66;38.93
82353;BME280;71954;47.430;18.920;2023-08-12T11:42:23;100381.00;;;26.66;39.73
82353;BME280;71954;47.430;18.920;2023-08-12T11:44:50;100381.19;;;26.71;42.92
82353;BME280;71954;47.430;18.920;2023-08-12T11:47:17;100376.41;;;26.66;40.72
82353;BME280;71954;47.430;18.920;2023-08-12T11:49:43;100376.75;;;26.77;39.53
82353;BME280;71954;47.430;18.920;2023-08-12T11:52:10;100378.00;;;26.81;37.92
82353;BME280;71954;47.430;18.920;2023-08-12T11:54:39;100374.81;;;26.90;39.04
82353;BME280;71954;47.430;18.920;2023-08-12T11:57:05;100366.56;;;27.03;39.47
82353;BME280;71954;47.430;18.920;2023-08-12T11:59:32;100369.38;;;26.90;39.17
82353;BME280;71954;47.430;18.920;2023-08-12T12:02:01;100362.31;;;27.07;46.63
82353;BME280;71954;47.430;18.920;2023-08-12T12:04:31;100360.84;;;27.11;39.92
82353;BME280;71954;47.430;18.920;2023-08-12T12:06:58;100363.28;;;27.20;38.04
82353;BME280;71954;47.430;18.920;2023-08-12T12:09:26;100358.19;;;27.30;36.82
82353;BME280;71954;47.430;18.920;2023-08-12T12:11:53;100347.69;;;27.27;38.60
82353;BME280;71954;47.430;18.920;2023-08-12T12:14:21;100344.53;;;27.30;41.16
82353;BME280;71954;47.430;18.920;2023-08-12T12:16:48;100340.31;;;27.34;38.70
82353;BME280;71954;47.430;18.920;2023-08-12T12:19:17;100334.63;;;27.35;38.26
82353;BME280;71954;47.430;18.920;2023-08-12T12:21:46;100343.47;;;27.31;41.68
82353;BME280;71954;47.430;18.920;2023-08-12T12:24:14;100342.72;;;27.24;44.27
82353;BME280;71954;47.430;18.920;2023-08-12T12:26:41;100331.66;;;27.19;39.68
82353;BME280;71954;47.430;18.920;2023-08-12T12:29:08;100329.41;;;27.09;42.20
82353;BME280;71954;47.430;18.920;2023-08-12T12:31:36;100328.84;;;27.00;41.67
82353;BME280;71954;47.430;18.920;2023-08-12T12:34:03;100328.91;;;26.94;39.67
82353;BME280;71954;47.430;18.920;2023-08-12T12:36:37;100328.44;;;26.97;37.42
82353;BME280;71954;47.430;18.920;2023-08-12T12:39:05;100323.41;;;27.00;38.00
82353;BME280;71954;47.430;18.920;2023-08-12T12:41:32;100326.72;;;27.02;45.05
82353;BME280;71954;47.430;18.920;2023-08-12T12:44:00;100322.63;;;26.93;44.55
82353;BME280;71954;47.430;18.920;2023-08-12T12:46:29;100321.78;;;26.86;41.70
82353;BME280;71954;47.430;18.920;2023-08-12T12:48:56;100324.94;;;26.83;40.54
82353;BME280;71954;47.430;18.920;2023-08-12T12:51:23;100318.06;;;26.81;40.63
82353;BME280;71954;47.430;18.920;2023-08-12T12:53:49;100320.97;;;26.86;43.69